METAR Formatted Surface Weather Observation
Issued by NWS Charleston, WV

Home | Current Version | Previous Version | Text Only | Print | Product List | Glossary On
Versions: 1
581
SAUS41 KRLX 261354
MTREKN
METAR KEKN 261351Z AUTO 00000KT 10SM CLR 18/13 A3007 RMK AO2 SLP181
T01780128 TSNO



USA.gov is the U.S. government's official web portal to all federal, state and local government web resources and services.